createdAt,value
2023-01-17T00:00:40.272Z,98057.47
2023-01-17T00:04:11.599Z,98073.28
2023-01-17T00:07:43.246Z,98068.69
2023-01-17T00:10:55.816Z,98067.75
2023-01-17T00:14:08.157Z,98072.84
2023-01-17T00:17:24.346Z,98066.47
2023-01-17T00:20:55.142Z,98064.34
2023-01-17T00:24:27.005Z,98072.00
2023-01-17T00:27:39.308Z,98083.13
2023-01-17T00:30:52.050Z,98078.22
2023-01-17T00:34:04.448Z,98079.09
2023-01-17T00:37:17.020Z,98069.22
2023-01-17T00:40:29.275Z,98060.22
2023-01-17T00:48:15.732Z,98060.75
2023-01-17T00:51:47.464Z,98064.22
2023-01-17T00:55:18.368Z,98063.72
2023-01-17T00:58:49.244Z,98056.66
2023-01-17T01:02:20.238Z,98060.69
2023-01-17T01:05:51.153Z,98051.38
2023-01-17T01:09:22.355Z,98049.37
2023-01-17T01:12:53.914Z,98052.66
2023-01-17T01:16:24.892Z,98057.69
2023-01-17T01:19:55.920Z,98065.81
2023-01-17T01:23:26.921Z,98058.69
2023-01-17T01:26:58.232Z,98082.44
2023-01-17T01:30:29.692Z,98095.00
2023-01-17T01:33:42.293Z,98098.66
2023-01-17T01:36:54.812Z,98089.16
2023-01-17T01:40:08.163Z,98089.31
2023-01-17T01:43:22.201Z,98081.37
2023-01-17T01:46:41.423Z,98073.41
2023-01-17T01:49:53.784Z,98071.63
2023-01-17T01:53:06.538Z,98075.66
2023-01-17T01:56:20.291Z,98077.81
2023-01-17T01:59:32.906Z,98074.34
2023-01-17T02:02:46.143Z,98079.09
2023-01-17T02:06:09.296Z,98088.59
2023-01-17T02:09:21.640Z,98087.50
2023-01-17T02:12:34.242Z,98085.84
2023-01-17T02:16:18.215Z,98083.13
2023-01-17T02:19:49.045Z,98081.56
2023-01-17T02:23:28.051Z,98064.75
2023-01-17T02:27:03.834Z,98072.78
2023-01-17T02:30:16.073Z,98049.78
2023-01-17T02:33:46.925Z,98041.09
2023-01-17T02:37:11.086Z,98030.41
2023-01-17T02:40:27.087Z,98032.84
2023-01-17T02:43:39.699Z,98017.53
2023-01-17T02:46:54.058Z,98012.06
2023-01-17T02:50:09.033Z,98015.88
2023-01-17T02:53:35.195Z,98015.81
2023-01-17T02:57:29.006Z,98021.63
2023-01-17T03:00:54.822Z,98018.28
2023-01-17T03:04:10.094Z,98008.22
2023-01-17T03:07:24.874Z,98007.25
2023-01-17T03:10:37.233Z,97986.94
2023-01-17T03:13:54.874Z,97967.06
2023-01-17T03:17:06.994Z,97946.88
2023-01-17T03:20:22.327Z,97945.97
2023-01-17T03:23:34.893Z,97946.44
2023-01-17T03:26:47.990Z,97946.66
2023-01-17T03:30:00.500Z,97937.31
2023-01-17T03:33:16.569Z,97909.53
2023-01-17T03:36:28.970Z,97918.81
2023-01-17T03:39:41.577Z,97906.88
2023-01-17T03:42:53.906Z,97901.00
2023-01-17T03:46:08.378Z,97902.34
2023-01-17T03:49:20.938Z,97906.78
2023-01-17T03:52:33.567Z,97909.31
2023-01-17T03:55:46.388Z,97908.84
2023-01-17T03:58:59.045Z,97911.25
2023-01-17T04:02:11.419Z,97903.59
2023-01-17T04:05:24.039Z,97899.91
2023-01-17T04:08:36.380Z,97908.06
2023-01-17T04:11:50.972Z,97898.63
2023-01-17T04:15:03.569Z,97898.25
2023-01-17T04:18:20.078Z,97897.28
2023-01-17T04:21:32.409Z,97904.75
2023-01-17T04:24:45.055Z,97907.22
2023-01-17T04:28:00.778Z,97901.69
2023-01-17T04:31:14.623Z,97904.28
2023-01-17T04:34:27.089Z,97912.22
2023-01-17T04:37:40.213Z,97904.75
2023-01-17T04:40:52.587Z,97906.50
2023-01-17T04:44:05.302Z,97911.13
2023-01-17T04:47:17.666Z,97910.91
2023-01-17T04:50:30.528Z,97915.97
2023-01-17T04:53:42.886Z,97924.38
2023-01-17T04:56:55.526Z,97911.03
2023-01-17T05:00:08.599Z,97911.56
2023-01-17T05:03:21.915Z,97922.63
2023-01-17T05:06:34.302Z,97928.16
2023-01-17T05:09:47.699Z,97932.72
2023-01-17T05:13:00.059Z,97937.84
2023-01-17T05:16:12.755Z,97938.47
2023-01-17T05:19:25.957Z,97937.69
2023-01-17T05:22:38.597Z,97933.38
2023-01-17T05:25:50.887Z,97930.16
2023-01-17T05:29:03.495Z,97917.38
2023-01-17T05:32:15.830Z,97915.53
2023-01-17T05:35:32.518Z,97931.16
2023-01-17T05:38:44.850Z,97933.31
2023-01-17T05:41:57.602Z,97930.03
2023-01-17T05:45:10.368Z,97942.50
2023-01-17T05:48:22.953Z,97956.88
2023-01-17T05:51:37.827Z,97960.00
2023-01-17T05:54:50.696Z,97953.28
2023-01-17T05:58:03.144Z,97963.09
2023-01-17T06:01:15.846Z,97981.53
2023-01-17T06:04:28.515Z,97976.44
2023-01-17T06:07:43.707Z,97979.16
2023-01-17T06:10:58.880Z,97983.25
2023-01-17T06:14:11.308Z,97982.47
2023-01-17T06:17:23.955Z,97986.72
2023-01-17T06:20:36.461Z,97993.81
2023-01-17T06:23:49.091Z,97996.97
2023-01-17T06:27:01.399Z,98006.53
2023-01-17T06:30:14.280Z,98012.06
2023-01-17T06:33:26.834Z,98031.94
2023-01-17T06:36:39.511Z,98026.84
2023-01-17T06:39:52.013Z,98028.44
2023-01-17T06:43:05.949Z,98033.25
2023-01-17T06:46:18.468Z,98039.84
2023-01-17T06:49:31.148Z,98040.53
2023-01-17T06:52:43.541Z,98044.53
2023-01-17T06:55:57.776Z,98043.97
2023-01-17T06:59:10.584Z,98045.94
2023-01-17T07:02:23.502Z,98058.31
2023-01-17T07:05:36.361Z,98064.37
2023-01-17T07:08:49.031Z,98064.78
2023-01-17T07:12:02.092Z,98072.22
2023-01-17T07:15:14.772Z,98083.34
2023-01-17T07:18:27.463Z,98076.25
2023-01-17T07:21:40.501Z,98078.22
2023-01-17T07:24:58.484Z,98091.03
2023-01-17T07:28:11.278Z,98090.47
2023-01-17T07:31:23.606Z,98087.81
2023-01-17T07:34:36.626Z,98089.94
2023-01-17T07:37:49.683Z,98105.88
2023-01-17T07:41:02.333Z,98108.41
2023-01-17T07:44:14.738Z,98107.84
2023-01-17T07:47:27.413Z,98121.16
2023-01-17T07:50:39.939Z,98117.97
2023-01-17T07:53:52.555Z,98136.69
2023-01-17T07:57:05.048Z,98154.53
2023-01-17T08:00:18.261Z,98148.66
2023-01-17T08:03:36.656Z,98156.56
2023-01-17T08:06:51.722Z,98156.56
2023-01-17T08:10:04.723Z,98163.97
2023-01-17T08:13:18.908Z,98167.91
2023-01-17T08:16:31.612Z,98160.88
2023-01-17T08:19:44.980Z,98158.91
2023-01-17T08:22:57.816Z,98164.06
2023-01-17T08:26:10.274Z,98168.06
2023-01-17T08:29:23.359Z,98178.22
2023-01-17T08:32:35.855Z,98194.84
2023-01-17T08:35:54.327Z,98186.69
2023-01-17T08:39:06.693Z,98197.25
2023-01-17T08:42:19.346Z,98215.94
2023-01-17T08:45:31.732Z,98206.81
2023-01-17T08:48:44.671Z,98197.94
2023-01-17T08:51:57.039Z,98204.38
2023-01-17T08:55:11.426Z,98217.44
2023-01-17T08:58:24.367Z,98216.22
2023-01-17T09:01:40.795Z,98227.44
2023-01-17T09:04:53.714Z,98225.56
2023-01-17T09:08:06.382Z,98219.75
2023-01-17T09:11:18.773Z,98233.72
2023-01-17T09:14:31.412Z,98241.66
2023-01-17T09:17:45.158Z,98251.56
2023-01-17T09:20:59.363Z,98244.03
2023-01-17T09:24:12.353Z,98244.56
2023-01-17T09:27:24.992Z,98254.97
2023-01-17T09:30:37.383Z,98254.75
2023-01-17T09:33:50.709Z,98259.09
2023-01-17T09:37:03.143Z,98253.75
2023-01-17T09:40:22.423Z,98266.59
2023-01-17T09:43:41.013Z,98266.31
2023-01-17T09:47:03.317Z,98269.25
2023-01-17T09:50:31.708Z,98267.56
2023-01-17T09:53:44.445Z,98262.25
2023-01-17T09:57:29.531Z,98278.78
2023-01-17T10:01:10.189Z,98277.16
2023-01-17T10:04:57.476Z,98268.41
2023-01-17T10:08:21.940Z,98276.84
2023-01-17T10:11:40.660Z,98287.13
2023-01-17T10:14:58.383Z,98281.69
2023-01-17T10:18:29.674Z,98290.97
2023-01-17T10:22:16.359Z,98287.19
2023-01-17T10:25:55.068Z,98279.53
2023-01-17T10:29:12.430Z,98270.97
2023-01-17T10:32:26.457Z,98261.56
2023-01-17T10:35:38.763Z,98271.56
2023-01-17T10:38:53.784Z,98282.75
2023-01-17T10:42:17.199Z,98275.72
2023-01-17T10:45:36.593Z,98282.34
2023-01-17T10:48:50.521Z,98276.00
2023-01-17T10:52:07.913Z,98262.75
2023-01-17T10:55:26.348Z,98263.53
2023-01-17T10:58:38.990Z,98270.37
2023-01-17T11:01:51.533Z,98266.13
2023-01-17T11:05:15.986Z,98261.03
2023-01-17T11:08:28.355Z,98253.91
2023-01-17T11:11:50.619Z,98248.75
2023-01-17T11:15:10.648Z,98240.87
2023-01-17T11:18:27.383Z,98230.31
2023-01-17T11:21:39.803Z,98226.56
2023-01-17T11:24:55.501Z,98221.28
2023-01-17T11:28:20.928Z,98225.59
2023-01-17T11:31:33.571Z,98206.88
2023-01-17T11:35:06.084Z,98213.31
2023-01-17T11:38:21.658Z,98219.53
2023-01-17T11:41:38.635Z,98231.22
2023-01-17T11:44:51.117Z,98226.56
2023-01-17T11:48:09.189Z,98214.59
2023-01-17T11:51:27.353Z,98214.91
2023-01-17T11:54:40.396Z,98233.44
2023-01-17T11:57:54.682Z,98231.72
2023-01-17T12:01:17.286Z,98225.41
2023-01-17T12:04:38.817Z,98229.69
2023-01-17T12:08:19.338Z,98236.50
2023-01-17T12:11:38.168Z,98225.44
2023-01-17T12:15:09.321Z,98231.19
2023-01-17T12:18:40.624Z,98230.03
2023-01-17T12:22:12.311Z,98226.84
2023-01-17T12:25:43.575Z,98227.22
2023-01-17T12:29:23.808Z,98227.13
2023-01-17T12:32:49.196Z,98217.28
2023-01-17T12:36:17.652Z,98212.31
2023-01-17T12:39:36.927Z,98216.16
2023-01-17T12:43:15.784Z,98213.75
2023-01-17T12:46:38.763Z,98229.59
2023-01-17T12:50:09.950Z,98230.41
2023-01-17T12:53:39.500Z,98229.56
2023-01-17T12:57:22.357Z,98234.13
2023-01-17T13:00:37.090Z,98228.00
2023-01-17T13:04:14.492Z,98222.25
2023-01-17T13:07:46.807Z,98210.47
2023-01-17T13:11:01.035Z,98216.78
2023-01-17T13:14:13.687Z,98210.75
2023-01-17T13:17:39.617Z,98215.59
2023-01-17T13:21:11.047Z,98221.06
2023-01-17T13:24:31.130Z,98233.50
2023-01-17T13:27:53.016Z,98238.03
2023-01-17T13:31:17.359Z,98251.97
2023-01-17T13:34:36.232Z,98243.38
2023-01-17T13:37:57.234Z,98234.47
2023-01-17T13:41:36.919Z,98218.50
2023-01-17T13:44:49.316Z,98207.38
2023-01-17T13:48:21.387Z,98202.50
2023-01-17T13:52:04.013Z,98195.72
2023-01-17T13:55:43.540Z,98182.44
2023-01-17T13:59:02.666Z,98193.94
2023-01-17T14:02:33.520Z,98182.78
2023-01-17T14:05:47.484Z,98178.38
2023-01-17T14:09:08.996Z,98162.91
2023-01-17T14:12:21.836Z,98147.34
2023-01-17T14:15:35.247Z,98122.97
2023-01-17T14:18:48.133Z,98121.28
2023-01-17T14:22:18.639Z,98102.19
2023-01-17T14:25:37.496Z,98097.47
2023-01-17T14:28:49.826Z,98090.94
2023-01-17T14:32:02.894Z,98088.56
2023-01-17T14:35:22.308Z,98086.41
2023-01-17T14:38:35.848Z,98079.66
2023-01-17T14:41:48.211Z,98084.41
2023-01-17T14:45:06.902Z,98075.72
2023-01-17T14:48:21.384Z,98071.69
2023-01-17T14:51:38.501Z,98062.75
2023-01-17T14:54:51.408Z,98062.19
2023-01-17T14:58:04.097Z,98062.56
2023-01-17T15:01:18.668Z,98060.41
2023-01-17T15:04:31.954Z,98054.09
2023-01-17T15:07:44.839Z,98056.91
2023-01-17T15:11:05.708Z,98062.22
2023-01-17T15:14:33.482Z,98060.28
2023-01-17T15:17:46.120Z,98066.50
2023-01-17T15:21:03.472Z,98071.56
2023-01-17T15:24:20.049Z,98066.72
2023-01-17T15:27:32.428Z,98070.44
2023-01-17T15:31:05.896Z,98058.47
2023-01-17T15:34:26.662Z,98048.69
2023-01-17T15:37:40.611Z,98045.28
2023-01-17T15:40:52.927Z,98041.03
2023-01-17T15:44:05.583Z,98036.59
2023-01-17T15:47:30.047Z,98029.06
2023-01-17T15:50:42.640Z,98018.78
2023-01-17T15:53:54.994Z,98011.59
2023-01-17T15:57:18.059Z,98014.88
2023-01-17T16:00:32.729Z,98009.69
2023-01-17T16:03:54.939Z,98006.84
2023-01-17T16:07:34.120Z,98001.91
2023-01-17T16:10:46.754Z,97994.91
2023-01-17T16:13:59.074Z,98000.31
2023-01-17T16:17:14.932Z,97984.44
2023-01-17T16:20:34.811Z,97994.38
2023-01-17T16:23:47.463Z,97997.41
2023-01-17T16:26:59.816Z,98001.03
2023-01-17T16:30:17.552Z,97991.78
2023-01-17T16:33:29.930Z,97978.59
2023-01-17T16:36:42.616Z,97983.97
2023-01-17T16:39:54.899Z,97962.47
2023-01-17T16:43:07.641Z,97961.78
2023-01-17T16:46:20.543Z,97949.75
2023-01-17T16:49:33.250Z,97953.09
2023-01-17T16:52:45.610Z,97941.84
2023-01-17T16:55:59.148Z,97952.09
2023-01-17T16:59:11.499Z,97945.13
2023-01-17T17:02:24.170Z,97948.47
2023-01-17T17:05:37.459Z,97942.63
2023-01-17T17:08:50.117Z,97940.38
2023-01-17T17:12:05.098Z,97935.31
2023-01-17T17:15:17.854Z,97933.63
2023-01-17T17:18:30.244Z,97919.31
2023-01-17T17:21:42.893Z,97913.22
2023-01-17T17:24:55.205Z,97899.94
2023-01-17T17:28:07.892Z,97908.38
2023-01-17T17:31:20.486Z,97887.66
2023-01-17T17:34:36.726Z,97891.38
2023-01-17T17:37:49.079Z,97880.56
2023-01-17T17:41:09.824Z,97860.88
2023-01-17T17:44:22.167Z,97854.78
2023-01-17T17:47:34.793Z,97845.34
2023-01-17T17:50:57.195Z,97816.50
2023-01-17T17:54:12.264Z,97802.09
2023-01-17T17:57:24.708Z,97789.66
2023-01-17T18:00:37.291Z,97771.41
2023-01-17T18:03:54.003Z,97751.50
2023-01-17T18:07:06.320Z,97742.63
2023-01-17T18:10:19.036Z,97729.06
2023-01-17T18:13:31.695Z,97711.22
2023-01-17T18:16:44.910Z,97702.00
2023-01-17T18:19:57.295Z,97696.47
2023-01-17T18:23:09.927Z,97670.19
2023-01-17T18:26:27.111Z,97667.59
2023-01-17T18:29:39.970Z,97657.78
2023-01-17T18:32:52.352Z,97664.00
2023-01-17T18:36:08.773Z,97658.81
2023-01-17T18:39:25.791Z,97634.41
2023-01-17T18:42:39.041Z,97644.38
2023-01-17T18:45:54.416Z,97640.81
2023-01-17T18:49:07.127Z,97626.50
2023-01-17T18:52:20.865Z,97622.13
2023-01-17T18:55:33.527Z,97607.37
2023-01-17T18:58:46.461Z,97604.91
2023-01-17T19:01:59.100Z,97599.41
2023-01-17T19:05:12.958Z,97607.25
2023-01-17T19:08:25.569Z,97614.66
2023-01-17T19:11:38.083Z,97603.81
2023-01-17T19:14:50.715Z,97600.25
2023-01-17T19:18:03.952Z,97597.56
2023-01-17T19:21:18.853Z,97592.37
2023-01-17T19:24:31.373Z,97577.31
2023-01-17T19:27:43.989Z,97578.44
2023-01-17T19:31:20.482Z,97561.34
2023-01-17T19:34:33.169Z,97555.41
2023-01-17T19:37:50.877Z,97530.34
2023-01-17T19:41:30.695Z,97519.31
2023-01-17T19:44:43.018Z,97493.44
2023-01-17T19:47:55.826Z,97505.84
2023-01-17T19:51:10.481Z,97510.59
2023-01-17T19:54:23.395Z,97512.84
2023-01-17T19:57:37.004Z,97486.75
2023-01-17T20:00:49.715Z,97454.72
2023-01-17T20:04:02.820Z,97446.22
2023-01-17T20:07:15.157Z,97456.88
2023-01-17T20:10:28.662Z,97457.31
2023-01-17T20:13:41.761Z,97441.69
2023-01-17T20:16:54.403Z,97442.75
2023-01-17T20:20:07.674Z,97428.53
2023-01-17T20:23:20.243Z,97428.97
2023-01-17T20:26:36.667Z,97421.62
2023-01-17T20:29:49.663Z,97415.22
2023-01-17T20:33:02.034Z,97407.91
2023-01-17T20:36:15.507Z,97400.16
2023-01-17T20:39:28.026Z,97405.50
2023-01-17T20:42:40.678Z,97404.00
2023-01-17T20:45:56.048Z,97416.22
2023-01-17T20:49:15.837Z,97420.00
2023-01-17T20:52:28.178Z,97413.81
2023-01-17T20:55:40.790Z,97423.13
2023-01-17T20:58:53.977Z,97408.06
2023-01-17T21:02:09.940Z,97408.63
2023-01-17T21:05:22.338Z,97418.81
2023-01-17T21:08:38.159Z,97406.97
2023-01-17T21:11:51.335Z,97383.75
2023-01-17T21:15:04.176Z,97390.81
2023-01-17T21:18:17.012Z,97391.12
2023-01-17T21:21:29.664Z,97378.44
2023-01-17T21:24:42.017Z,97365.56
2023-01-17T21:27:54.911Z,97372.28
2023-01-17T21:31:18.139Z,97367.12
2023-01-17T21:34:32.690Z,97361.25
2023-01-17T21:37:48.543Z,97347.03
2023-01-17T21:41:01.111Z,97342.13
2023-01-17T21:44:21.366Z,97326.03
2023-01-17T21:47:33.984Z,97334.97
2023-01-17T21:50:47.315Z,97325.13
2023-01-17T21:53:59.963Z,97320.84
2023-01-17T21:57:32.423Z,97336.94
2023-01-17T22:00:45.052Z,97318.28
2023-01-17T22:04:01.644Z,97309.16
2023-01-17T22:07:14.027Z,97315.66
2023-01-17T22:10:26.617Z,97313.13
2023-01-17T22:13:39.964Z,97308.16
2023-01-17T22:16:52.622Z,97289.72
2023-01-17T22:20:06.173Z,97310.41
2023-01-17T22:23:18.816Z,97309.00
2023-01-17T22:26:31.494Z,97314.19
2023-01-17T22:29:44.140Z,97305.81
2023-01-17T22:32:57.136Z,97301.00
2023-01-17T22:36:10.566Z,97301.47
2023-01-17T22:39:22.835Z,97303.09
2023-01-17T22:42:35.437Z,97302.56
2023-01-17T22:45:47.759Z,97312.16
2023-01-17T22:49:00.386Z,97313.59
2023-01-17T22:52:12.708Z,97305.97
2023-01-17T22:55:28.167Z,97300.72
2023-01-17T22:58:44.585Z,97302.28
2023-01-17T23:01:57.219Z,97326.81
2023-01-17T23:05:12.735Z,97320.03
2023-01-17T23:08:25.363Z,97313.94
2023-01-17T23:11:46.207Z,97313.78
2023-01-17T23:15:17.344Z,97306.53
2023-01-17T23:18:48.401Z,97346.22
2023-01-17T23:22:16.473Z,97333.41
2023-01-17T23:25:28.839Z,97359.19
2023-01-17T23:28:41.454Z,97361.63
2023-01-17T23:31:53.806Z,97377.94
2023-01-17T23:35:07.045Z,97369.75
2023-01-17T23:38:33.876Z,97391.47
2023-01-17T23:42:05.221Z,97367.78
2023-01-17T23:45:17.549Z,97361.63
2023-01-17T23:48:30.293Z,97373.59
2023-01-17T23:51:42.619Z,97366.94
2023-01-17T23:54:55.247Z,97375.41
2023-01-17T23:58:08.803Z,97380.00
